• Join FlightAware (Why Join?)
  • Login
  • US Flag 
12:27PM EDT


 

Airport Tracker/Info


-or-


 

Live Flight TrackerFlight Track Log ✈ CTL22 ✈ 30-Apr-2013 ✈ KAZO - KBKL

Flight Track Log - Related Links

Times and Time Zones

All times are in EDT time to prevent confusion due to time zone crossing. See the CTL22 flight status page for this flight to view local times or setup timezone preferences in your user account.

Time Position Orientation Groundspeed Altitude Reporting Facility
EDT Latitude Longitude Course Direction KTS MPH feet Rate Location/Type
08:07PM 42.1736 -85.3928 106° East 130 150 4,300  Level Chicago Center
08:08PM 42.1597 -85.3419 110° East 143 165 5,100 720 Climbing Chicago Center
08:09PM 42.1394 -85.2978 122° Southeast 140 161 5,900 660 Climbing Chicago Center
08:10PM 42.1715 -85.1783 103° East  Level Estimated
08:10PM 42.1217 -85.2494 116° Southeast 142 163 6,500  Level Chicago Center
08:11PM 42.1609 -85.1161 103° East  Level Estimated
08:11PM 42.1025 -85.1989 117° Southeast 148 170 7,000  Level Chicago Center
08:12PM 42.0753 -85.1289 118° Southeast 169 194 7,100  Climbing Chicago Center
08:13PM 42.0503 -85.0656 118° Southeast 186 214 7,000  Descending Chicago Center
08:14PM 42.0242 -85.0067 121° Southeast 185 213 7,100 -60 Climbing Chicago Center
08:15PM 41.9986 -84.9456 119° Southeast 186 214 6,900 -60 Descending Chicago Center
08:16PM 41.9728 -84.8867 121° Southeast 184 212 7,000 60 Climbing Chicago Center
08:17PM 41.9506 -84.8250 116° Southeast 183 211 7,100  Climbing Chicago Center
08:18PM 41.9308 -84.7600 112° Southeast 186 214 7,000 -120 Descending Chicago Center
08:19PM 41.9064 -84.6833 113° Southeast 187 215 6,900 -60 Descending Chicago Center
08:20PM 41.8847 -84.6200 115° Southeast 188 216 6,900  Level Chicago Center
08:21PM 41.8717 -84.5528 105° East 187 215 6,900  Level Chicago Center
08:22PM 41.8492 -84.4903 116° Southeast 185 213 7,000  Climbing Chicago Center
08:23PM 41.8281 -84.4289 115° Southeast 182 209 7,000  Level Chicago Center
08:24PM 41.8022 -84.3703 121° Southeast 182 209 7,000  Level Chicago Center
08:25PM 41.7756 -84.2947 115° Southeast 185 213 7,000  Level Chicago Center
08:26PM 41.7536 -84.2328 115° Southeast 186 214 7,000  Level Chicago Center
08:27PM 41.7339 -84.1711 113° Southeast 184 212 7,100  Climbing Chicago Center
08:28PM 41.7139 -84.1086 113° Southeast 183 211 7,000 -60 Descending Chicago Center
08:44PM 41.6208 -83.0386 96° East 182 209 7,000  Level Cleveland Center
08:45PM 41.6158 -82.9800 96° East 180 207 7,100  Climbing Cleveland Center
08:46PM 41.6111 -82.9161 96° East 179 206 7,100 -60 Level Cleveland Center
08:47PM 41.6083 -82.8464 93° East 184 212 7,000  Descending Cleveland Center
08:48PM 41.6053 -82.7797 93° East 180 207 7,100  Climbing Cleveland Center
08:49PM 41.6044 -82.7131 91° East 180 207 7,000 -60 Descending Cleveland Center
08:50PM 41.5975 -82.6461 98° East 180 207 7,000  Level Cleveland Center
08:51PM 41.5964 -82.5794 91° East 181 208 7,000  Level Cleveland Center
08:52PM 41.5997 -82.5131 86° East 181 208 7,000 -240 Level Cleveland Center
08:53PM 41.6008 -82.4464 89° East 182 209 6,600 -660 Descending Cleveland Center
08:54PM 41.6042 -82.3658 87° East 204 235 5,700 -900 Descending Cleveland Center
08:55PM 41.6031 -82.2964 91° East 200 230 4,900 -900 Descending Cleveland Center
08:56PM 41.6025 -82.2103 90° East 198 228 3,800 -900 Descending Cleveland Center
08:57PM 41.5992 -82.1408 94° East 194 223 3,000 -420 Descending Cleveland Center
08:58PM 41.5917 -82.0686 98° East 163 188 3,000 -300 Level Cleveland Center
08:59PM 41.5842 -82.0072 99° East 164 189 2,400 -600 Descending Cleveland Center
09:01PM 41.5706 -81.9319 104° East 178 205 1,700 -360 Descending Cleveland Center
09:01PM 41.5606 -81.8847 106° East 158 182 1,700  Level Cleveland Center
09:02PM 41.5467 -81.8289 108° East 152 175 1,700 -60 Level Cleveland Center
09:04PM 41.5306 -81.7814 114° Southeast 151 174 1,600 -300 Descending Cleveland Center
09:05PM 41.5164 -81.7311 111° Southeast 140 161 1,200 -420 Descending Cleveland Center
09:06PM 41.5175 -81.6833 90° East  Level Estimated
09:13PM 41.5175 -81.6833 95° East  Level Estimated
09:14PM 41.5175 -81.6833 95° East  Level Estimated